LFRZ/SNR METAR and TAF weather

Enter ICAO airport designator
Station Type Date Time Source
LFRZ METAR 2018/12/12 07:30 UTC NOAA

LFRZ 120730Z AUTO 08006KT 7000 FEW009 OVC014 04/04 Q1019 TEMPO 3000 -RA BECMG SCT005 BKN020


Station Type Date Time Source
LFRZ Decoded METAR 2018/12/12 07:30 UTC NOAA

St-Nazaire, France (LFRZ) 47-19N 002-10W 4M
Dec 12, 2018 - 02:30 AM EST / 2018.12.12 0730 UTC
Wind: from the E (080 degrees) at 7 MPH (6 KT):0
Visibility: 4 mile(s):0
Sky conditions: overcast
Temperature: 39 F (4 C)
Dew Point: 39 F (4 C)
Relative Humidity: 100%
Pressure (altimeter): 30.09 in. Hg (1019 hPa)
ob: LFRZ 120730Z AUTO 08006KT 7000 FEW009 OVC014 04/04 Q1019 TEMPO 3000 -RA BECMG SCT005 BKN020
cycle: 7

Station Type Date Time Source
LFRZ TAF 2018/12/12 06:21 UTC NOAA

TAF LFRZ 120500Z 1206/1306 10012KT 8000 SCT005 BKN020
TEMPO 1206/1209 3000 -RA BKN003
BECMG 1221/1224 BKN005


Example: see airport list